sensor_id;sensor_type;location;lat;lon;timestamp;P1;durP1;ratioP1;P2;durP2;ratioP2
72517;SDS011;60540;51.178;6.738;2022-12-11T00:01:12;39.70;;;13.10;;
72517;SDS011;60540;51.178;6.738;2022-12-11T00:03:41;35.10;;;12.43;;
72517;SDS011;60540;51.178;6.738;2022-12-11T00:06:07;41.92;;;13.93;;
72517;SDS011;60540;51.178;6.738;2022-12-11T00:08:34;38.30;;;11.90;;
72517;SDS011;60540;51.178;6.738;2022-12-11T00:11:00;41.90;;;13.43;;
72517;SDS011;60540;51.178;6.738;2022-12-11T00:13:26;41.30;;;13.57;;
72517;SDS011;60540;51.178;6.738;2022-12-11T00:15:52;42.75;;;15.25;;
72517;SDS011;60540;51.178;6.738;2022-12-11T00:18:17;43.15;;;14.07;;
72517;SDS011;60540;51.178;6.738;2022-12-11T00:20:43;42.28;;;13.98;;
72517;SDS011;60540;51.178;6.738;2022-12-11T00:23:09;44.72;;;14.48;;
72517;SDS011;60540;51.178;6.738;2022-12-11T00:25:41;44.38;;;13.57;;
72517;SDS011;60540;51.178;6.738;2022-12-11T00:28:08;44.33;;;14.95;;
72517;SDS011;60540;51.178;6.738;2022-12-11T00:30:37;40.35;;;14.30;;
72517;SDS011;60540;51.178;6.738;2022-12-11T00:33:05;41.28;;;14.80;;
72517;SDS011;60540;51.178;6.738;2022-12-11T00:35:30;41.60;;;13.45;;
72517;SDS011;60540;51.178;6.738;2022-12-11T00:37:56;46.53;;;14.95;;
72517;SDS011;60540;51.178;6.738;2022-12-11T00:40:21;47.17;;;14.90;;
72517;SDS011;60540;51.178;6.738;2022-12-11T00:42:47;38.75;;;13.32;;
72517;SDS011;60540;51.178;6.738;2022-12-11T00:45:13;41.95;;;14.38;;
72517;SDS011;60540;51.178;6.738;2022-12-11T00:47:38;39.97;;;14.25;;
72517;SDS011;60540;51.178;6.738;2022-12-11T00:50:04;40.67;;;14.10;;
72517;SDS011;60540;51.178;6.738;2022-12-11T00:52:30;39.25;;;13.07;;
72517;SDS011;60540;51.178;6.738;2022-12-11T00:54:56;38.92;;;14.57;;
72517;SDS011;60540;51.178;6.738;2022-12-11T00:57:22;45.67;;;14.30;;
72517;SDS011;60540;51.178;6.738;2022-12-11T00:59:47;38.17;;;12.93;;
72517;SDS011;60540;51.178;6.738;2022-12-11T01:02:13;34.72;;;13.13;;
72517;SDS011;60540;51.178;6.738;2022-12-11T01:04:39;38.53;;;13.48;;
72517;SDS011;60540;51.178;6.738;2022-12-11T01:07:04;35.38;;;11.73;;
72517;SDS011;60540;51.178;6.738;2022-12-11T01:09:30;31.00;;;12.15;;
72517;SDS011;60540;51.178;6.738;2022-12-11T01:12:14;35.33;;;11.52;;
72517;SDS011;60540;51.178;6.738;2022-12-11T01:14:40;33.22;;;11.43;;
72517;SDS011;60540;51.178;6.738;2022-12-11T01:17:06;28.42;;;10.05;;
72517;SDS011;60540;51.178;6.738;2022-12-11T01:19:31;33.47;;;11.82;;
72517;SDS011;60540;51.178;6.738;2022-12-11T01:21:57;27.35;;;9.82;;
72517;SDS011;60540;51.178;6.738;2022-12-11T01:24:23;29.50;;;11.48;;
72517;SDS011;60540;51.178;6.738;2022-12-11T01:26:49;31.63;;;10.73;;
72517;SDS011;60540;51.178;6.738;2022-12-11T01:29:14;31.45;;;11.13;;
72517;SDS011;60540;51.178;6.738;2022-12-11T01:31:40;27.88;;;11.63;;
72517;SDS011;60540;51.178;6.738;2022-12-11T01:34:05;35.53;;;11.90;;
72517;SDS011;60540;51.178;6.738;2022-12-11T01:36:31;28.20;;;10.48;;
72517;SDS011;60540;51.178;6.738;2022-12-11T01:38:57;32.90;;;12.48;;
72517;SDS011;60540;51.178;6.738;2022-12-11T01:41:22;31.60;;;10.38;;
72517;SDS011;60540;51.178;6.738;2022-12-11T01:46:43;26.67;;;10.35;;
72517;SDS011;60540;51.178;6.738;2022-12-11T01:49:10;32.33;;;11.40;;
72517;SDS011;60540;51.178;6.738;2022-12-11T01:51:43;26.05;;;9.95;;
72517;SDS011;60540;51.178;6.738;2022-12-11T01:54:16;30.85;;;9.90;;
72517;SDS011;60540;51.178;6.738;2022-12-11T01:59:09;22.00;;;8.00;;
72517;SDS011;60540;51.178;6.738;2022-12-11T02:01:36;25.13;;;9.63;;
72517;SDS011;60540;51.178;6.738;2022-12-11T02:04:05;27.98;;;10.02;;
72517;SDS011;60540;51.178;6.738;2022-12-11T02:06:32;26.00;;;9.20;;
72517;SDS011;60540;51.178;6.738;2022-12-11T02:09:01;24.10;;;8.88;;
72517;SDS011;60540;51.178;6.738;2022-12-11T02:11:51;31.38;;;11.63;;
72517;SDS011;60540;51.178;6.738;2022-12-11T02:17:06;26.80;;;9.85;;
72517;SDS011;60540;51.178;6.738;2022-12-11T02:31:13;23.63;;;9.57;;
72517;SDS011;60540;51.178;6.738;2022-12-11T02:36:10;24.08;;;9.65;;
72517;SDS011;60540;51.178;6.738;2022-12-11T02:38:38;26.52;;;11.10;;
72517;SDS011;60540;51.178;6.738;2022-12-11T02:41:06;34.08;;;11.18;;
72517;SDS011;60540;51.178;6.738;2022-12-11T02:43:32;28.27;;;10.95;;
72517;SDS011;60540;51.178;6.738;2022-12-11T02:45:58;30.25;;;10.30;;
72517;SDS011;60540;51.178;6.738;2022-12-11T02:48:25;33.05;;;10.50;;
72517;SDS011;60540;51.178;6.738;2022-12-11T02:50:51;33.85;;;11.93;;
72517;SDS011;60540;51.178;6.738;2022-12-11T02:53:19;32.78;;;10.73;;
72517;SDS011;60540;51.178;6.738;2022-12-11T02:55:46;39.38;;;12.57;;
72517;SDS011;60540;51.178;6.738;2022-12-11T02:58:18;31.45;;;12.27;;
72517;SDS011;60540;51.178;6.738;2022-12-11T03:00:47;29.50;;;12.45;;
72517;SDS011;60540;51.178;6.738;2022-12-11T03:03:12;34.60;;;10.02;;
72517;SDS011;60540;51.178;6.738;2022-12-11T03:05:38;35.40;;;11.90;;
72517;SDS011;60540;51.178;6.738;2022-12-11T03:08:05;30.75;;;10.48;;
72517;SDS011;60540;51.178;6.738;2022-12-11T03:10:30;30.40;;;12.25;;
72517;SDS011;60540;51.178;6.738;2022-12-11T03:12:56;38.47;;;12.98;;
72517;SDS011;60540;51.178;6.738;2022-12-11T03:15:27;31.75;;;11.98;;
72517;SDS011;60540;51.178;6.738;2022-12-11T03:18:08;36.10;;;12.50;;
72517;SDS011;60540;51.178;6.738;2022-12-11T03:20:43;34.05;;;12.10;;
72517;SDS011;60540;51.178;6.738;2022-12-11T03:25:46;33.88;;;13.30;;
72517;SDS011;60540;51.178;6.738;2022-12-11T03:28:18;33.70;;;12.00;;
72517;SDS011;60540;51.178;6.738;2022-12-11T03:30:48;32.40;;;12.32;;
72517;SDS011;60540;51.178;6.738;2022-12-11T03:33:25;30.85;;;11.65;;
72517;SDS011;60540;51.178;6.738;2022-12-11T03:35:54;37.58;;;12.13;;
72517;SDS011;60540;51.178;6.738;2022-12-11T03:38:22;36.95;;;12.05;;
72517;SDS011;60540;51.178;6.738;2022-12-11T03:40:52;32.60;;;12.20;;
72517;SDS011;60540;51.178;6.738;2022-12-11T03:43:20;34.55;;;12.85;;
72517;SDS011;60540;51.178;6.738;2022-12-11T03:45:45;31.25;;;11.35;;
72517;SDS011;60540;51.178;6.738;2022-12-11T03:48:13;38.58;;;12.35;;
72517;SDS011;60540;51.178;6.738;2022-12-11T03:50:39;32.88;;;12.20;;
72517;SDS011;60540;51.178;6.738;2022-12-11T03:53:05;32.67;;;11.85;;
72517;SDS011;60540;51.178;6.738;2022-12-11T03:55:31;29.20;;;10.80;;
72517;SDS011;60540;51.178;6.738;2022-12-11T03:57:57;31.92;;;11.80;;
72517;SDS011;60540;51.178;6.738;2022-12-11T04:00:22;34.63;;;13.60;;
72517;SDS011;60540;51.178;6.738;2022-12-11T04:02:49;36.97;;;12.52;;
72517;SDS011;60540;51.178;6.738;2022-12-11T04:05:34;28.70;;;9.52;;
72517;SDS011;60540;51.178;6.738;2022-12-11T04:08:00;28.83;;;10.45;;
72517;SDS011;60540;51.178;6.738;2022-12-11T04:10:26;31.73;;;11.55;;
72517;SDS011;60540;51.178;6.738;2022-12-11T04:12:51;30.05;;;10.93;;
72517;SDS011;60540;51.178;6.738;2022-12-11T04:15:17;30.17;;;11.20;;
72517;SDS011;60540;51.178;6.738;2022-12-11T04:17:43;27.17;;;10.77;;
72517;SDS011;60540;51.178;6.738;2022-12-11T04:20:27;29.55;;;10.52;;
72517;SDS011;60540;51.178;6.738;2022-12-11T04:23:12;27.27;;;11.18;;
72517;SDS011;60540;51.178;6.738;2022-12-11T04:28:30;27.13;;;11.05;;
72517;SDS011;60540;51.178;6.738;2022-12-11T04:30:55;29.95;;;10.27;;
72517;SDS011;60540;51.178;6.738;2022-12-11T04:33:21;25.83;;;10.02;;
72517;SDS011;60540;51.178;6.738;2022-12-11T04:35:47;25.33;;;9.98;;
72517;SDS011;60540;51.178;6.738;2022-12-11T04:38:12;34.05;;;11.30;;
72517;SDS011;60540;51.178;6.738;2022-12-11T04:40:38;29.42;;;10.60;;
72517;SDS011;60540;51.178;6.738;2022-12-11T04:43:04;26.67;;;10.48;;
72517;SDS011;60540;51.178;6.738;2022-12-11T04:45:29;26.90;;;9.98;;
72517;SDS011;60540;51.178;6.738;2022-12-11T04:47:55;26.42;;;9.93;;
72517;SDS011;60540;51.178;6.738;2022-12-11T04:50:21;20.70;;;8.80;;
72517;SDS011;60540;51.178;6.738;2022-12-11T04:52:46;21.83;;;8.75;;
72517;SDS011;60540;51.178;6.738;2022-12-11T04:55:12;26.80;;;9.60;;
72517;SDS011;60540;51.178;6.738;2022-12-11T04:57:38;27.75;;;10.82;;
72517;SDS011;60540;51.178;6.738;2022-12-11T05:00:05;28.58;;;9.27;;
72517;SDS011;60540;51.178;6.738;2022-12-11T05:02:35;23.60;;;9.82;;
72517;SDS011;60540;51.178;6.738;2022-12-11T05:05:02;27.20;;;10.57;;
72517;SDS011;60540;51.178;6.738;2022-12-11T05:07:29;29.70;;;8.82;;
72517;SDS011;60540;51.178;6.738;2022-12-11T05:09:55;25.17;;;9.18;;
72517;SDS011;60540;51.178;6.738;2022-12-11T05:12:20;28.15;;;9.35;;
72517;SDS011;60540;51.178;6.738;2022-12-11T05:14:46;24.98;;;11.48;;
72517;SDS011;60540;51.178;6.738;2022-12-11T05:17:12;26.35;;;8.98;;
72517;SDS011;60540;51.178;6.738;2022-12-11T05:19:37;28.13;;;10.20;;
72517;SDS011;60540;51.178;6.738;2022-12-11T05:22:03;27.40;;;10.70;;
72517;SDS011;60540;51.178;6.738;2022-12-11T05:24:29;23.95;;;8.45;;
72517;SDS011;60540;51.178;6.738;2022-12-11T05:26:54;27.38;;;10.60;;
72517;SDS011;60540;51.178;6.738;2022-12-11T05:29:20;30.02;;;10.77;;
72517;SDS011;60540;51.178;6.738;2022-12-11T05:31:46;23.20;;;10.48;;
72517;SDS011;60540;51.178;6.738;2022-12-11T05:34:11;25.13;;;9.75;;
72517;SDS011;60540;51.178;6.738;2022-12-11T05:36:37;28.67;;;10.38;;
72517;SDS011;60540;51.178;6.738;2022-12-11T05:39:03;24.80;;;8.77;;
72517;SDS011;60540;51.178;6.738;2022-12-11T05:41:31;24.42;;;8.88;;
72517;SDS011;60540;51.178;6.738;2022-12-11T05:43:58;27.70;;;9.80;;
72517;SDS011;60540;51.178;6.738;2022-12-11T05:46:25;23.63;;;9.20;;
72517;SDS011;60540;51.178;6.738;2022-12-11T05:48:53;24.85;;;9.48;;
72517;SDS011;60540;51.178;6.738;2022-12-11T05:51:20;25.55;;;10.20;;
72517;SDS011;60540;51.178;6.738;2022-12-11T05:53:46;23.50;;;8.13;;
72517;SDS011;60540;51.178;6.738;2022-12-11T05:56:15;21.20;;;8.07;;
72517;SDS011;60540;51.178;6.738;2022-12-11T05:58:42;22.63;;;9.75;;
72517;SDS011;60540;51.178;6.738;2022-12-11T06:01:13;26.63;;;10.02;;
72517;SDS011;60540;51.178;6.738;2022-12-11T06:03:40;26.42;;;9.35;;
72517;SDS011;60540;51.178;6.738;2022-12-11T06:06:06;24.95;;;9.55;;
72517;SDS011;60540;51.178;6.738;2022-12-11T06:08:32;23.50;;;9.35;;
72517;SDS011;60540;51.178;6.738;2022-12-11T06:10:58;20.00;;;8.82;;
72517;SDS011;60540;51.178;6.738;2022-12-11T06:13:24;26.80;;;9.98;;
72517;SDS011;60540;51.178;6.738;2022-12-11T06:15:49;27.08;;;10.00;;
72517;SDS011;60540;51.178;6.738;2022-12-11T06:18:15;22.92;;;8.68;;
72517;SDS011;60540;51.178;6.738;2022-12-11T06:20:41;21.65;;;9.65;;
72517;SDS011;60540;51.178;6.738;2022-12-11T06:23:07;21.98;;;9.13;;
72517;SDS011;60540;51.178;6.738;2022-12-11T06:25:32;23.83;;;10.85;;
72517;SDS011;60540;51.178;6.738;2022-12-11T06:27:58;26.33;;;9.35;;
72517;SDS011;60540;51.178;6.738;2022-12-11T06:30:24;23.63;;;9.50;;
72517;SDS011;60540;51.178;6.738;2022-12-11T06:32:49;28.33;;;9.90;;
72517;SDS011;60540;51.178;6.738;2022-12-11T06:35:15;23.63;;;9.38;;
72517;SDS011;60540;51.178;6.738;2022-12-11T06:37:41;21.77;;;10.27;;
72517;SDS011;60540;51.178;6.738;2022-12-11T06:40:07;23.77;;;10.70;;
72517;SDS011;60540;51.178;6.738;2022-12-11T06:42:34;27.85;;;10.90;;
72517;SDS011;60540;51.178;6.738;2022-12-11T06:44:59;31.15;;;10.50;;
72517;SDS011;60540;51.178;6.738;2022-12-11T06:47:25;23.67;;;9.13;;
72517;SDS011;60540;51.178;6.738;2022-12-11T06:49:52;26.95;;;9.73;;
72517;SDS011;60540;51.178;6.738;2022-12-11T06:52:18;22.73;;;9.88;;
72517;SDS011;60540;51.178;6.738;2022-12-11T06:54:56;28.75;;;10.35;;
72517;SDS011;60540;51.178;6.738;2022-12-11T06:57:22;25.83;;;8.60;;
72517;SDS011;60540;51.178;6.738;2022-12-11T06:59:48;27.75;;;9.73;;
72517;SDS011;60540;51.178;6.738;2022-12-11T07:02:14;31.20;;;9.52;;
72517;SDS011;60540;51.178;6.738;2022-12-11T07:04:41;28.88;;;10.95;;
72517;SDS011;60540;51.178;6.738;2022-12-11T07:07:07;22.27;;;10.45;;
72517;SDS011;60540;51.178;6.738;2022-12-11T07:09:34;21.77;;;9.27;;
72517;SDS011;60540;51.178;6.738;2022-12-11T07:12:02;22.85;;;8.63;;
72517;SDS011;60540;51.178;6.738;2022-12-11T07:14:28;24.02;;;9.65;;
72517;SDS011;60540;51.178;6.738;2022-12-11T07:16:55;22.67;;;8.63;;
72517;SDS011;60540;51.178;6.738;2022-12-11T07:19:21;20.95;;;9.27;;
72517;SDS011;60540;51.178;6.738;2022-12-11T07:21:46;22.85;;;8.77;;
72517;SDS011;60540;51.178;6.738;2022-12-11T07:24:12;28.40;;;9.98;;
72517;SDS011;60540;51.178;6.738;2022-12-11T07:26:38;20.67;;;8.38;;
72517;SDS011;60540;51.178;6.738;2022-12-11T07:29:03;18.20;;;8.77;;
72517;SDS011;60540;51.178;6.738;2022-12-11T07:31:29;20.75;;;8.85;;
72517;SDS011;60540;51.178;6.738;2022-12-11T07:33:56;23.20;;;8.07;;
72517;SDS011;60540;51.178;6.738;2022-12-11T07:36:22;21.13;;;7.68;;
72517;SDS011;60540;51.178;6.738;2022-12-11T07:38:48;19.77;;;8.13;;
72517;SDS011;60540;51.178;6.738;2022-12-11T07:41:14;23.23;;;8.60;;
72517;SDS011;60540;51.178;6.738;2022-12-11T07:43:40;21.63;;;9.48;;
72517;SDS011;60540;51.178;6.738;2022-12-11T07:46:08;19.55;;;7.93;;
72517;SDS011;60540;51.178;6.738;2022-12-11T07:48:36;19.05;;;7.63;;
72517;SDS011;60540;51.178;6.738;2022-12-11T07:53:34;20.52;;;9.10;;
72517;SDS011;60540;51.178;6.738;2022-12-11T07:55:59;21.10;;;7.78;;
72517;SDS011;60540;51.178;6.738;2022-12-11T07:58:25;16.70;;;7.80;;
72517;SDS011;60540;51.178;6.738;2022-12-11T08:00:51;19.30;;;8.35;;
72517;SDS011;60540;51.178;6.738;2022-12-11T08:03:17;17.40;;;7.72;;
72517;SDS011;60540;51.178;6.738;2022-12-11T08:05:49;16.73;;;7.22;;
72517;SDS011;60540;51.178;6.738;2022-12-11T08:08:16;16.77;;;7.43;;
72517;SDS011;60540;51.178;6.738;2022-12-11T08:10:42;18.58;;;7.50;;
72517;SDS011;60540;51.178;6.738;2022-12-11T08:13:08;14.45;;;8.13;;
72517;SDS011;60540;51.178;6.738;2022-12-11T08:15:35;18.85;;;7.70;;
72517;SDS011;60540;51.178;6.738;2022-12-11T08:18:01;18.90;;;7.55;;
72517;SDS011;60540;51.178;6.738;2022-12-11T08:20:26;19.15;;;7.38;;
72517;SDS011;60540;51.178;6.738;2022-12-11T08:22:52;16.00;;;7.40;;
72517;SDS011;60540;51.178;6.738;2022-12-11T08:25:18;14.85;;;7.32;;
72517;SDS011;60540;51.178;6.738;2022-12-11T08:27:43;18.67;;;7.40;;
72517;SDS011;60540;51.178;6.738;2022-12-11T08:30:09;19.42;;;7.72;;
72517;SDS011;60540;51.178;6.738;2022-12-11T08:32:35;19.65;;;8.43;;
72517;SDS011;60540;51.178;6.738;2022-12-11T08:35:00;16.05;;;7.55;;
72517;SDS011;60540;51.178;6.738;2022-12-11T08:37:26;15.88;;;6.13;;
72517;SDS011;60540;51.178;6.738;2022-12-11T08:39:52;19.33;;;6.60;;
72517;SDS011;60540;51.178;6.738;2022-12-11T08:42:17;16.83;;;8.02;;
72517;SDS011;60540;51.178;6.738;2022-12-11T08:44:43;14.18;;;6.68;;
72517;SDS011;60540;51.178;6.738;2022-12-11T08:47:09;18.25;;;7.72;;
72517;SDS011;60540;51.178;6.738;2022-12-11T08:49:35;22.10;;;7.70;;
72517;SDS011;60540;51.178;6.738;2022-12-11T08:52:04;22.75;;;8.45;;
72517;SDS011;60540;51.178;6.738;2022-12-11T08:54:29;19.00;;;7.82;;
72517;SDS011;60540;51.178;6.738;2022-12-11T08:56:56;17.60;;;7.93;;
72517;SDS011;60540;51.178;6.738;2022-12-11T08:59:21;18.65;;;8.18;;
72517;SDS011;60540;51.178;6.738;2022-12-11T09:01:47;15.90;;;6.57;;
72517;SDS011;60540;51.178;6.738;2022-12-11T09:04:13;21.95;;;9.63;;
72517;SDS011;60540;51.178;6.738;2022-12-11T09:06:39;14.88;;;6.63;;
72517;SDS011;60540;51.178;6.738;2022-12-11T09:09:05;14.15;;;5.55;;
72517;SDS011;60540;51.178;6.738;2022-12-11T09:11:32;14.63;;;6.72;;
72517;SDS011;60540;51.178;6.738;2022-12-11T09:13:59;18.60;;;7.78;;
72517;SDS011;60540;51.178;6.738;2022-12-11T09:16:25;17.90;;;6.75;;
72517;SDS011;60540;51.178;6.738;2022-12-11T09:18:51;14.10;;;6.20;;
72517;SDS011;60540;51.178;6.738;2022-12-11T09:21:19;15.20;;;6.95;;
72517;SDS011;60540;51.178;6.738;2022-12-11T09:23:46;12.23;;;6.47;;
72517;SDS011;60540;51.178;6.738;2022-12-11T09:26:13;13.63;;;6.15;;
72517;SDS011;60540;51.178;6.738;2022-12-11T09:28:40;18.52;;;6.70;;
72517;SDS011;60540;51.178;6.738;2022-12-11T09:31:12;15.55;;;6.53;;
72517;SDS011;60540;51.178;6.738;2022-12-11T09:33:39;16.60;;;6.55;;
72517;SDS011;60540;51.178;6.738;2022-12-11T09:36:05;14.85;;;6.50;;
72517;SDS011;60540;51.178;6.738;2022-12-11T09:38:31;14.80;;;7.22;;
72517;SDS011;60540;51.178;6.738;2022-12-11T09:40:58;16.73;;;7.28;;
72517;SDS011;60540;51.178;6.738;2022-12-11T09:45:49;17.98;;;8.25;;
72517;SDS011;60540;51.178;6.738;2022-12-11T09:48:15;18.15;;;7.43;;
72517;SDS011;60540;51.178;6.738;2022-12-11T09:50:44;20.45;;;7.75;;
72517;SDS011;60540;51.178;6.738;2022-12-11T09:53:32;14.70;;;6.38;;
72517;SDS011;60540;51.178;6.738;2022-12-11T09:56:03;17.13;;;7.18;;
72517;SDS011;60540;51.178;6.738;2022-12-11T09:58:48;16.77;;;6.65;;
72517;SDS011;60540;51.178;6.738;2022-12-11T10:07:37;12.90;;;5.85;;
72517;SDS011;60540;51.178;6.738;2022-12-11T10:10:12;16.10;;;7.45;;
72517;SDS011;60540;51.178;6.738;2022-12-11T10:18:18;19.95;;;7.28;;
72517;SDS011;60540;51.178;6.738;2022-12-11T10:20:47;19.40;;;6.88;;
72517;SDS011;60540;51.178;6.738;2022-12-11T10:25:43;13.98;;;5.90;;
72517;SDS011;60540;51.178;6.738;2022-12-11T10:28:15;19.42;;;6.60;;
72517;SDS011;60540;51.178;6.738;2022-12-11T10:36:28;16.10;;;6.88;;
72517;SDS011;60540;51.178;6.738;2022-12-11T10:38:55;20.98;;;8.07;;
72517;SDS011;60540;51.178;6.738;2022-12-11T10:41:23;20.52;;;7.72;;
72517;SDS011;60540;51.178;6.738;2022-12-11T10:43:55;17.60;;;6.88;;
72517;SDS011;60540;51.178;6.738;2022-12-11T10:46:22;18.90;;;8.27;;
72517;SDS011;60540;51.178;6.738;2022-12-11T10:48:50;22.52;;;8.20;;
72517;SDS011;60540;51.178;6.738;2022-12-11T10:51:24;20.30;;;8.55;;
72517;SDS011;60540;51.178;6.738;2022-12-11T10:56:51;18.08;;;7.72;;
72517;SDS011;60540;51.178;6.738;2022-12-11T10:59:37;20.88;;;9.35;;
72517;SDS011;60540;51.178;6.738;2022-12-11T11:02:06;16.80;;;7.95;;
72517;SDS011;60540;51.178;6.738;2022-12-11T11:04:44;19.27;;;8.55;;
72517;SDS011;60540;51.178;6.738;2022-12-11T11:07:11;21.85;;;8.88;;
72517;SDS011;60540;51.178;6.738;2022-12-11T11:09:37;22.75;;;9.38;;
72517;SDS011;60540;51.178;6.738;2022-12-11T11:12:04;21.45;;;8.30;;
72517;SDS011;60540;51.178;6.738;2022-12-11T11:14:40;21.30;;;8.73;;
72517;SDS011;60540;51.178;6.738;2022-12-11T11:17:10;20.90;;;7.82;;
72517;SDS011;60540;51.178;6.738;2022-12-11T11:19:38;18.27;;;7.95;;
72517;SDS011;60540;51.178;6.738;2022-12-11T11:22:05;18.95;;;7.30;;
72517;SDS011;60540;51.178;6.738;2022-12-11T11:24:34;17.58;;;7.97;;
72517;SDS011;60540;51.178;6.738;2022-12-11T11:27:10;16.10;;;7.78;;
72517;SDS011;60540;51.178;6.738;2022-12-11T11:29:37;18.75;;;8.40;;
72517;SDS011;60540;51.178;6.738;2022-12-11T11:35:15;20.15;;;8.88;;
72517;SDS011;60540;51.178;6.738;2022-12-11T11:37:51;18.30;;;7.90;;
72517;SDS011;60540;51.178;6.738;2022-12-11T11:40:40;20.83;;;7.55;;
72517;SDS011;60540;51.178;6.738;2022-12-11T11:43:20;19.67;;;8.85;;
72517;SDS011;60540;51.178;6.738;2022-12-11T11:46:04;18.70;;;9.00;;
72517;SDS011;60540;51.178;6.738;2022-12-11T11:48:37;19.95;;;8.98;;
72517;SDS011;60540;51.178;6.738;2022-12-11T11:51:15;22.48;;;9.05;;
72517;SDS011;60540;51.178;6.738;2022-12-11T11:53:47;19.63;;;8.95;;
72517;SDS011;60540;51.178;6.738;2022-12-11T12:01:56;22.92;;;9.73;;
72517;SDS011;60540;51.178;6.738;2022-12-11T12:04:22;20.95;;;9.45;;
72517;SDS011;60540;51.178;6.738;2022-12-11T12:12:36;22.77;;;8.55;;
72517;SDS011;60540;51.178;6.738;2022-12-11T12:18:06;19.48;;;7.78;;
72517;SDS011;60540;51.178;6.738;2022-12-11T12:20:49;20.75;;;9.32;;
72517;SDS011;60540;51.178;6.738;2022-12-11T12:26:08;24.25;;;9.68;;
72517;SDS011;60540;51.178;6.738;2022-12-11T12:40:14;18.67;;;7.80;;
72517;SDS011;60540;51.178;6.738;2022-12-11T12:42:51;20.63;;;9.32;;
72517;SDS011;60540;51.178;6.738;2022-12-11T12:45:27;24.95;;;9.60;;
72517;SDS011;60540;51.178;6.738;2022-12-11T12:47:54;20.88;;;9.13;;
72517;SDS011;60540;51.178;6.738;2022-12-11T12:50:21;26.15;;;9.63;;
72517;SDS011;60540;51.178;6.738;2022-12-11T12:52:49;22.02;;;9.38;;
72517;SDS011;60540;51.178;6.738;2022-12-11T12:55:18;23.35;;;9.05;;
72517;SDS011;60540;51.178;6.738;2022-12-11T12:58:04;21.30;;;8.57;;
72517;SDS011;60540;51.178;6.738;2022-12-11T13:02:58;23.05;;;9.05;;
72517;SDS011;60540;51.178;6.738;2022-12-11T13:05:31;20.35;;;9.65;;
72517;SDS011;60540;51.178;6.738;2022-12-11T13:07:59;18.75;;;8.90;;
72517;SDS011;60540;51.178;6.738;2022-12-11T13:16:05;20.73;;;8.43;;
72517;SDS011;60540;51.178;6.738;2022-12-11T13:18:33;21.02;;;8.98;;
72517;SDS011;60540;51.178;6.738;2022-12-11T13:21:21;19.98;;;9.48;;
72517;SDS011;60540;51.178;6.738;2022-12-11T13:26:46;22.90;;;8.95;;
72517;SDS011;60540;51.178;6.738;2022-12-11T13:32:03;18.52;;;8.88;;
72517;SDS011;60540;51.178;6.738;2022-12-11T13:34:49;20.30;;;9.18;;
72517;SDS011;60540;51.178;6.738;2022-12-11T13:37:20;20.60;;;9.80;;
72517;SDS011;60540;51.178;6.738;2022-12-11T13:39:49;21.83;;;9.90;;
72517;SDS011;60540;51.178;6.738;2022-12-11T13:42:21;22.40;;;9.60;;
72517;SDS011;60540;51.178;6.738;2022-12-11T13:44:50;22.80;;;10.02;;
72517;SDS011;60540;51.178;6.738;2022-12-11T13:47:16;24.73;;;9.18;;
72517;SDS011;60540;51.178;6.738;2022-12-11T13:49:43;21.60;;;9.48;;
72517;SDS011;60540;51.178;6.738;2022-12-11T13:52:19;21.35;;;9.20;;
72517;SDS011;60540;51.178;6.738;2022-12-11T13:54:53;23.63;;;10.10;;
72517;SDS011;60540;51.178;6.738;2022-12-11T13:57:21;23.25;;;10.45;;
72517;SDS011;60540;51.178;6.738;2022-12-11T13:59:56;24.65;;;9.32;;
72517;SDS011;60540;51.178;6.738;2022-12-11T14:02:24;21.40;;;9.52;;
72517;SDS011;60540;51.178;6.738;2022-12-11T14:05:07;20.48;;;9.10;;
72517;SDS011;60540;51.178;6.738;2022-12-11T14:07:35;25.67;;;9.93;;
72517;SDS011;60540;51.178;6.738;2022-12-11T14:10:19;21.65;;;9.10;;
72517;SDS011;60540;51.178;6.738;2022-12-11T14:12:50;23.17;;;9.40;;
72517;SDS011;60540;51.178;6.738;2022-12-11T14:15:16;26.98;;;10.02;;
72517;SDS011;60540;51.178;6.738;2022-12-11T14:17:42;23.15;;;10.15;;
72517;SDS011;60540;51.178;6.738;2022-12-11T14:20:18;25.48;;;10.38;;
72517;SDS011;60540;51.178;6.738;2022-12-11T14:22:46;20.17;;;8.85;;
72517;SDS011;60540;51.178;6.738;2022-12-11T14:25:17;24.58;;;10.25;;
72517;SDS011;60540;51.178;6.738;2022-12-11T14:27:48;27.60;;;10.52;;
72517;SDS011;60540;51.178;6.738;2022-12-11T14:30:19;22.23;;;10.45;;
72517;SDS011;60540;51.178;6.738;2022-12-11T14:32:49;21.35;;;9.85;;
72517;SDS011;60540;51.178;6.738;2022-12-11T14:35:23;20.95;;;9.60;;
72517;SDS011;60540;51.178;6.738;2022-12-11T14:38:01;23.88;;;9.80;;
72517;SDS011;60540;51.178;6.738;2022-12-11T14:40:34;23.70;;;10.63;;
72517;SDS011;60540;51.178;6.738;2022-12-11T14:43:07;24.55;;;10.02;;
72517;SDS011;60540;51.178;6.738;2022-12-11T14:45:36;22.45;;;10.25;;
72517;SDS011;60540;51.178;6.738;2022-12-11T14:48:07;23.05;;;8.90;;
72517;SDS011;60540;51.178;6.738;2022-12-11T14:50:38;20.60;;;8.85;;
72517;SDS011;60540;51.178;6.738;2022-12-11T14:53:09;24.17;;;10.68;;
72517;SDS011;60540;51.178;6.738;2022-12-11T14:55:38;19.75;;;8.93;;
72517;SDS011;60540;51.178;6.738;2022-12-11T15:01:24;21.75;;;9.95;;
72517;SDS011;60540;51.178;6.738;2022-12-11T15:03:48;25.75;;;10.13;;
72517;SDS011;60540;51.178;6.738;2022-12-11T15:06:28;25.30;;;11.15;;
72517;SDS011;60540;51.178;6.738;2022-12-11T15:08:55;25.42;;;10.13;;
72517;SDS011;60540;51.178;6.738;2022-12-11T15:11:21;27.10;;;10.15;;
72517;SDS011;60540;51.178;6.738;2022-12-11T15:13:52;20.65;;;8.82;;
72517;SDS011;60540;51.178;6.738;2022-12-11T15:16:22;23.33;;;10.15;;
72517;SDS011;60540;51.178;6.738;2022-12-11T15:18:49;24.67;;;10.85;;
72517;SDS011;60540;51.178;6.738;2022-12-11T15:23:46;23.08;;;9.18;;
72517;SDS011;60540;51.178;6.738;2022-12-11T15:26:16;25.58;;;10.68;;
72517;SDS011;60540;51.178;6.738;2022-12-11T15:28:43;22.73;;;10.25;;
72517;SDS011;60540;51.178;6.738;2022-12-11T15:33:50;25.23;;;10.75;;
72517;SDS011;60540;51.178;6.738;2022-12-11T15:38:48;23.75;;;11.10;;
72517;SDS011;60540;51.178;6.738;2022-12-11T15:41:14;27.70;;;10.70;;
72517;SDS011;60540;51.178;6.738;2022-12-11T15:43:41;22.55;;;10.75;;
72517;SDS011;60540;51.178;6.738;2022-12-11T15:46:07;24.42;;;10.80;;
72517;SDS011;60540;51.178;6.738;2022-12-11T15:48:33;27.60;;;10.52;;
72517;SDS011;60540;51.178;6.738;2022-12-11T15:50:59;29.15;;;10.98;;
72517;SDS011;60540;51.178;6.738;2022-12-11T15:53:25;26.30;;;10.65;;
72517;SDS011;60540;51.178;6.738;2022-12-11T15:55:50;29.40;;;11.25;;
72517;SDS011;60540;51.178;6.738;2022-12-11T15:58:20;25.23;;;10.68;;
72517;SDS011;60540;51.178;6.738;2022-12-11T16:00:47;21.70;;;9.68;;
72517;SDS011;60540;51.178;6.738;2022-12-11T16:03:14;29.48;;;11.68;;
72517;SDS011;60540;51.178;6.738;2022-12-11T16:05:40;26.38;;;10.18;;
72517;SDS011;60540;51.178;6.738;2022-12-11T16:08:06;22.50;;;11.07;;
72517;SDS011;60540;51.178;6.738;2022-12-11T16:10:33;26.70;;;10.50;;
72517;SDS011;60540;51.178;6.738;2022-12-11T16:12:59;26.40;;;9.95;;
72517;SDS011;60540;51.178;6.738;2022-12-11T16:15:26;22.92;;;10.02;;
72517;SDS011;60540;51.178;6.738;2022-12-11T16:18:00;30.58;;;12.15;;
72517;SDS011;60540;51.178;6.738;2022-12-11T16:20:27;22.25;;;10.05;;
72517;SDS011;60540;51.178;6.738;2022-12-11T16:22:53;24.55;;;10.07;;
72517;SDS011;60540;51.178;6.738;2022-12-11T16:25:18;25.08;;;12.60;;
72517;SDS011;60540;51.178;6.738;2022-12-11T16:27:44;24.65;;;10.73;;